sensor_id;sensor_type;location;lat;lon;timestamp;P1;durP1;ratioP1;P2;durP2;ratioP2
11865;SDS011;5992;52.744;6.898;2023-05-07T00:02:21;5.87;;;5.33;;
11865;SDS011;5992;52.744;6.898;2023-05-07T00:05:52;7.10;;;4.90;;
11865;SDS011;5992;52.744;6.898;2023-05-07T00:09:08;5.90;;;5.30;;
11865;SDS011;5992;52.744;6.898;2023-05-07T00:12:27;6.80;;;5.73;;
11865;SDS011;5992;52.744;6.898;2023-05-07T00:15:31;7.45;;;5.90;;
11865;SDS011;5992;52.744;6.898;2023-05-07T00:18:49;8.13;;;6.33;;
11865;SDS011;5992;52.744;6.898;2023-05-07T00:22:04;6.40;;;5.80;;
11865;SDS011;5992;52.744;6.898;2023-05-07T00:25:20;9.67;;;7.30;;
11865;SDS011;5992;52.744;6.898;2023-05-07T00:28:24;9.80;;;6.80;;
11865;SDS011;5992;52.744;6.898;2023-05-07T00:31:43;11.70;;;6.77;;
11865;SDS011;5992;52.744;6.898;2023-05-07T00:34:49;7.70;;;6.70;;
11865;SDS011;5992;52.744;6.898;2023-05-07T00:38:22;8.25;;;7.25;;
11865;SDS011;5992;52.744;6.898;2023-05-07T00:41:26;10.13;;;7.83;;
11865;SDS011;5992;52.744;6.898;2023-05-07T00:44:45;10.03;;;7.27;;
11865;SDS011;5992;52.744;6.898;2023-05-07T00:47:49;9.93;;;8.47;;
11865;SDS011;5992;52.744;6.898;2023-05-07T00:51:10;9.43;;;7.40;;
11865;SDS011;5992;52.744;6.898;2023-05-07T00:54:26;9.50;;;8.50;;
11865;SDS011;5992;52.744;6.898;2023-05-07T00:57:45;9.85;;;8.10;;
11865;SDS011;5992;52.744;6.898;2023-05-07T01:00:49;9.73;;;7.90;;
11865;SDS011;5992;52.744;6.898;2023-05-07T01:04:08;10.17;;;8.33;;
11865;SDS011;5992;52.744;6.898;2023-05-07T01:07:26;12.15;;;7.80;;
11865;SDS011;5992;52.744;6.898;2023-05-07T01:10:57;10.35;;;8.30;;
11865;SDS011;5992;52.744;6.898;2023-05-07T01:14:13;15.65;;;8.20;;
11865;SDS011;5992;52.744;6.898;2023-05-07T01:17:43;11.87;;;8.17;;
11865;SDS011;5992;52.744;6.898;2023-05-07T01:21:11;8.90;;;8.00;;
11865;SDS011;5992;52.744;6.898;2023-05-07T01:24:41;10.60;;;9.00;;
11865;SDS011;5992;52.744;6.898;2023-05-07T01:28:11;11.80;;;8.70;;
11865;SDS011;5992;52.744;6.898;2023-05-07T01:31:28;10.55;;;8.40;;
11865;SDS011;5992;52.744;6.898;2023-05-07T01:34:57;10.75;;;8.85;;
11865;SDS011;5992;52.744;6.898;2023-05-07T01:38:28;9.67;;;7.97;;
11865;SDS011;5992;52.744;6.898;2023-05-07T01:41:45;16.67;;;9.87;;
11865;SDS011;5992;52.744;6.898;2023-05-07T01:45:15;12.55;;;8.75;;
11865;SDS011;5992;52.744;6.898;2023-05-07T01:48:32;12.65;;;9.55;;
11865;SDS011;5992;52.744;6.898;2023-05-07T01:52:03;13.63;;;8.90;;
11865;SDS011;5992;52.744;6.898;2023-05-07T01:55:19;11.35;;;10.00;;
11865;SDS011;5992;52.744;6.898;2023-05-07T01:58:51;13.35;;;9.65;;
11865;SDS011;5992;52.744;6.898;2023-05-07T02:02:20;11.35;;;9.70;;
11865;SDS011;5992;52.744;6.898;2023-05-07T02:05:36;15.10;;;10.20;;
11865;SDS011;5992;52.744;6.898;2023-05-07T02:08:52;14.55;;;10.50;;
11865;SDS011;5992;52.744;6.898;2023-05-07T02:12:11;13.57;;;10.47;;
11865;SDS011;5992;52.744;6.898;2023-05-07T02:15:16;13.65;;;11.40;;
11865;SDS011;5992;52.744;6.898;2023-05-07T02:18:50;13.97;;;11.00;;
11865;SDS011;5992;52.744;6.898;2023-05-07T02:22:06;14.90;;;11.00;;
11865;SDS011;5992;52.744;6.898;2023-05-07T02:25:37;14.35;;;10.80;;
11865;SDS011;5992;52.744;6.898;2023-05-07T02:28:41;15.10;;;12.00;;
11865;SDS011;5992;52.744;6.898;2023-05-07T02:31:59;16.25;;;11.60;;
11865;SDS011;5992;52.744;6.898;2023-05-07T02:35:27;14.20;;;11.73;;
11865;SDS011;5992;52.744;6.898;2023-05-07T02:38:46;15.65;;;11.70;;
11865;SDS011;5992;52.744;6.898;2023-05-07T02:42:02;16.00;;;12.30;;
11865;SDS011;5992;52.744;6.898;2023-05-07T02:45:21;15.75;;;12.40;;
11865;SDS011;5992;52.744;6.898;2023-05-07T02:48:38;14.30;;;12.05;;
11865;SDS011;5992;52.744;6.898;2023-05-07T02:52:09;16.07;;;12.90;;
11865;SDS011;5992;52.744;6.898;2023-05-07T02:55:25;21.20;;;13.45;;
11865;SDS011;5992;52.744;6.898;2023-05-07T02:58:47;18.45;;;12.95;;
11865;SDS011;5992;52.744;6.898;2023-05-07T03:02:04;18.00;;;13.35;;
11865;SDS011;5992;52.744;6.898;2023-05-07T03:05:24;18.43;;;13.07;;
11865;SDS011;5992;52.744;6.898;2023-05-07T03:08:43;15.83;;;12.20;;
11865;SDS011;5992;52.744;6.898;2023-05-07T03:12:00;19.37;;;13.50;;
11865;SDS011;5992;52.744;6.898;2023-05-07T03:15:28;21.13;;;15.07;;
11865;SDS011;5992;52.744;6.898;2023-05-07T03:18:47;17.80;;;13.87;;
11865;SDS011;5992;52.744;6.898;2023-05-07T03:22:05;16.90;;;13.70;;
11865;SDS011;5992;52.744;6.898;2023-05-07T03:25:37;17.73;;;14.30;;
11865;SDS011;5992;52.744;6.898;2023-05-07T03:28:53;16.25;;;12.60;;
11865;SDS011;5992;52.744;6.898;2023-05-07T03:32:12;18.25;;;13.05;;
11865;SDS011;5992;52.744;6.898;2023-05-07T03:35:28;19.45;;;14.05;;
11865;SDS011;5992;52.744;6.898;2023-05-07T03:38:47;17.60;;;13.20;;
11865;SDS011;5992;52.744;6.898;2023-05-07T03:42:14;16.27;;;13.80;;
11865;SDS011;5992;52.744;6.898;2023-05-07T03:45:45;17.97;;;13.63;;
11865;SDS011;5992;52.744;6.898;2023-05-07T03:49:01;17.10;;;12.77;;
11865;SDS011;5992;52.744;6.898;2023-05-07T03:52:20;16.53;;;13.00;;
11865;SDS011;5992;52.744;6.898;2023-05-07T03:55:38;16.05;;;13.50;;
11865;SDS011;5992;52.744;6.898;2023-05-07T03:59:08;16.73;;;12.63;;
11865;SDS011;5992;52.744;6.898;2023-05-07T04:02:24;16.80;;;12.33;;
11865;SDS011;5992;52.744;6.898;2023-05-07T04:05:40;16.20;;;11.97;;
11865;SDS011;5992;52.744;6.898;2023-05-07T04:08:56;14.57;;;11.97;;
11865;SDS011;5992;52.744;6.898;2023-05-07T04:12:17;14.87;;;12.13;;
11865;SDS011;5992;52.744;6.898;2023-05-07T04:15:50;15.53;;;11.63;;
11865;SDS011;5992;52.744;6.898;2023-05-07T04:19:21;15.63;;;12.60;;
11865;SDS011;5992;52.744;6.898;2023-05-07T04:22:38;15.73;;;10.57;;
11865;SDS011;5992;52.744;6.898;2023-05-07T04:25:57;15.17;;;11.70;;
11865;SDS011;5992;52.744;6.898;2023-05-07T04:29:15;14.45;;;11.40;;
11865;SDS011;5992;52.744;6.898;2023-05-07T04:32:48;13.90;;;11.00;;
11865;SDS011;5992;52.744;6.898;2023-05-07T04:36:04;14.30;;;11.30;;
11865;SDS011;5992;52.744;6.898;2023-05-07T04:39:23;13.47;;;10.77;;
11865;SDS011;5992;52.744;6.898;2023-05-07T04:42:39;14.80;;;12.53;;
11865;SDS011;5992;52.744;6.898;2023-05-07T04:46:00;16.93;;;10.60;;
11865;SDS011;5992;52.744;6.898;2023-05-07T04:49:27;14.37;;;10.60;;
11865;SDS011;5992;52.744;6.898;2023-05-07T04:52:43;14.45;;;11.40;;
11865;SDS011;5992;52.744;6.898;2023-05-07T04:55:59;14.93;;;12.13;;
11865;SDS011;5992;52.744;6.898;2023-05-07T04:59:18;13.87;;;10.97;;
11865;SDS011;5992;52.744;6.898;2023-05-07T05:02:36;16.17;;;11.40;;
11865;SDS011;5992;52.744;6.898;2023-05-07T05:06:06;14.43;;;11.63;;
11865;SDS011;5992;52.744;6.898;2023-05-07T05:09:22;13.90;;;11.15;;
11865;SDS011;5992;52.744;6.898;2023-05-07T05:12:41;15.20;;;11.25;;
11865;SDS011;5992;52.744;6.898;2023-05-07T05:15:57;13.90;;;11.23;;
11865;SDS011;5992;52.744;6.898;2023-05-07T05:19:16;13.55;;;11.85;;
11865;SDS011;5992;52.744;6.898;2023-05-07T05:22:43;18.30;;;11.37;;
11865;SDS011;5992;52.744;6.898;2023-05-07T05:26:02;15.13;;;11.30;;
11865;SDS011;5992;52.744;6.898;2023-05-07T05:29:18;13.63;;;11.97;;
11865;SDS011;5992;52.744;6.898;2023-05-07T05:32:49;14.83;;;11.80;;
11865;SDS011;5992;52.744;6.898;2023-05-07T05:36:07;16.75;;;12.60;;
11865;SDS011;5992;52.744;6.898;2023-05-07T05:39:38;15.20;;;12.05;;
11865;SDS011;5992;52.744;6.898;2023-05-07T05:42:54;14.43;;;11.70;;
11865;SDS011;5992;52.744;6.898;2023-05-07T05:46:10;15.60;;;11.57;;
11865;SDS011;5992;52.744;6.898;2023-05-07T05:49:26;15.10;;;12.83;;
11865;SDS011;5992;52.744;6.898;2023-05-07T05:52:47;14.40;;;12.70;;
11865;SDS011;5992;52.744;6.898;2023-05-07T05:56:14;15.27;;;12.60;;
11865;SDS011;5992;52.744;6.898;2023-05-07T05:59:43;16.07;;;12.40;;
11865;SDS011;5992;52.744;6.898;2023-05-07T06:03:15;14.83;;;12.37;;
11865;SDS011;5992;52.744;6.898;2023-05-07T06:06:31;14.97;;;12.33;;
11865;SDS011;5992;52.744;6.898;2023-05-07T06:09:49;15.67;;;12.73;;
11865;SDS011;5992;52.744;6.898;2023-05-07T06:13:16;17.70;;;13.45;;
11865;SDS011;5992;52.744;6.898;2023-05-07T06:16:32;17.40;;;13.45;;
11865;SDS011;5992;52.744;6.898;2023-05-07T06:19:48;17.37;;;12.67;;
11865;SDS011;5992;52.744;6.898;2023-05-07T06:23:07;15.60;;;12.57;;
11865;SDS011;5992;52.744;6.898;2023-05-07T06:26:25;16.73;;;12.50;;
11865;SDS011;5992;52.744;6.898;2023-05-07T06:29:52;21.10;;;13.05;;
11865;SDS011;5992;52.744;6.898;2023-05-07T06:33:08;17.20;;;13.40;;
11865;SDS011;5992;52.744;6.898;2023-05-07T06:36:39;15.23;;;11.83;;
11865;SDS011;5992;52.744;6.898;2023-05-07T06:39:55;17.50;;;14.30;;
11865;SDS011;5992;52.744;6.898;2023-05-07T06:43:16;15.40;;;12.90;;
11865;SDS011;5992;52.744;6.898;2023-05-07T06:46:47;19.40;;;13.97;;
11865;SDS011;5992;52.744;6.898;2023-05-07T06:50:06;18.00;;;14.23;;
11865;SDS011;5992;52.744;6.898;2023-05-07T06:53:35;17.50;;;13.05;;
11865;SDS011;5992;52.744;6.898;2023-05-07T06:57:06;18.60;;;13.80;;
11865;SDS011;5992;52.744;6.898;2023-05-07T07:00:26;17.13;;;13.50;;
11865;SDS011;5992;52.744;6.898;2023-05-07T07:04:00;21.13;;;14.13;;
11865;SDS011;5992;52.744;6.898;2023-05-07T07:07:19;18.30;;;14.07;;
11865;SDS011;5992;52.744;6.898;2023-05-07T07:10:35;16.85;;;15.05;;
11865;SDS011;5992;52.744;6.898;2023-05-07T07:13:51;20.15;;;15.35;;
11865;SDS011;5992;52.744;6.898;2023-05-07T07:17:08;18.67;;;14.23;;
11865;SDS011;5992;52.744;6.898;2023-05-07T07:20:37;19.07;;;14.43;;
11865;SDS011;5992;52.744;6.898;2023-05-07T07:23:57;17.23;;;14.17;;
11865;SDS011;5992;52.744;6.898;2023-05-07T07:27:25;19.17;;;14.70;;
11865;SDS011;5992;52.744;6.898;2023-05-07T07:30:53;20.05;;;14.75;;
11865;SDS011;5992;52.744;6.898;2023-05-07T07:34:10;20.23;;;14.73;;
11865;SDS011;5992;52.744;6.898;2023-05-07T07:37:39;16.53;;;13.80;;
11865;SDS011;5992;52.744;6.898;2023-05-07T07:40:55;19.70;;;14.45;;
11865;SDS011;5992;52.744;6.898;2023-05-07T07:44:14;21.15;;;16.25;;
11865;SDS011;5992;52.744;6.898;2023-05-07T07:47:30;19.60;;;14.80;;
11865;SDS011;5992;52.744;6.898;2023-05-07T07:50:49;17.13;;;14.40;;
11865;SDS011;5992;52.744;6.898;2023-05-07T07:54:20;20.80;;;15.35;;
11865;SDS011;5992;52.744;6.898;2023-05-07T07:57:36;20.73;;;14.60;;
11865;SDS011;5992;52.744;6.898;2023-05-07T08:00:52;19.33;;;14.17;;
11865;SDS011;5992;52.744;6.898;2023-05-07T08:04:11;17.35;;;14.35;;
11865;SDS011;5992;52.744;6.898;2023-05-07T08:07:28;19.20;;;14.83;;
11865;SDS011;5992;52.744;6.898;2023-05-07T08:10:59;17.90;;;13.47;;
11865;SDS011;5992;52.744;6.898;2023-05-07T08:14:27;19.50;;;13.90;;
11865;SDS011;5992;52.744;6.898;2023-05-07T08:17:43;18.40;;;15.35;;
11865;SDS011;5992;52.744;6.898;2023-05-07T08:21:11;16.80;;;13.90;;
11865;SDS011;5992;52.744;6.898;2023-05-07T08:24:40;18.50;;;14.65;;
11865;SDS011;5992;52.744;6.898;2023-05-07T08:28:11;19.57;;;14.13;;
11865;SDS011;5992;52.744;6.898;2023-05-07T08:31:41;18.40;;;14.40;;
11865;SDS011;5992;52.744;6.898;2023-05-07T08:34:59;18.77;;;14.27;;
11865;SDS011;5992;52.744;6.898;2023-05-07T08:38:30;15.50;;;13.40;;
11865;SDS011;5992;52.744;6.898;2023-05-07T08:42:00;16.25;;;13.30;;
11865;SDS011;5992;52.744;6.898;2023-05-07T08:45:27;17.00;;;13.40;;
11865;SDS011;5992;52.744;6.898;2023-05-07T08:48:55;15.50;;;12.40;;
11865;SDS011;5992;52.744;6.898;2023-05-07T08:52:11;18.33;;;13.53;;
11865;SDS011;5992;52.744;6.898;2023-05-07T08:55:40;16.67;;;13.57;;
11865;SDS011;5992;52.744;6.898;2023-05-07T08:59:01;16.27;;;12.63;;
11865;SDS011;5992;52.744;6.898;2023-05-07T09:02:31;18.30;;;12.80;;
11865;SDS011;5992;52.744;6.898;2023-05-07T09:05:50;17.00;;;12.50;;
11865;SDS011;5992;52.744;6.898;2023-05-07T09:09:06;13.73;;;12.07;;
11865;SDS011;5992;52.744;6.898;2023-05-07T09:12:25;13.17;;;11.77;;
11865;SDS011;5992;52.744;6.898;2023-05-07T09:15:42;15.33;;;12.30;;
11865;SDS011;5992;52.744;6.898;2023-05-07T09:19:11;14.77;;;12.20;;
11865;SDS011;5992;52.744;6.898;2023-05-07T09:22:27;16.67;;;13.30;;
11865;SDS011;5992;52.744;6.898;2023-05-07T09:25:44;13.57;;;12.17;;
11865;SDS011;5992;52.744;6.898;2023-05-07T09:29:00;13.50;;;12.10;;
11865;SDS011;5992;52.744;6.898;2023-05-07T09:32:30;17.43;;;12.30;;
11865;SDS011;5992;52.744;6.898;2023-05-07T09:35:57;12.97;;;11.00;;
11865;SDS011;5992;52.744;6.898;2023-05-07T09:39:16;16.13;;;12.07;;
11865;SDS011;5992;52.744;6.898;2023-05-07T09:42:32;13.30;;;11.40;;
11865;SDS011;5992;52.744;6.898;2023-05-07T09:46:05;12.40;;;11.10;;
11865;SDS011;5992;52.744;6.898;2023-05-07T09:49:35;14.90;;;11.57;;
11865;SDS011;5992;52.744;6.898;2023-05-07T09:53:05;12.13;;;10.83;;
11865;SDS011;5992;52.744;6.898;2023-05-07T09:56:36;13.73;;;11.13;;
11865;SDS011;5992;52.744;6.898;2023-05-07T10:00:05;14.37;;;11.87;;
11865;SDS011;5992;52.744;6.898;2023-05-07T10:03:39;13.27;;;11.10;;
11865;SDS011;5992;52.744;6.898;2023-05-07T10:07:09;12.87;;;10.67;;
11865;SDS011;5992;52.744;6.898;2023-05-07T10:10:40;11.33;;;10.07;;
11865;SDS011;5992;52.744;6.898;2023-05-07T10:14:08;11.53;;;10.10;;
11865;SDS011;5992;52.744;6.898;2023-05-07T10:17:40;11.17;;;10.07;;
11865;SDS011;5992;52.744;6.898;2023-05-07T10:21:16;11.67;;;10.47;;
11865;SDS011;5992;52.744;6.898;2023-05-07T10:24:39;10.90;;;9.80;;
11865;SDS011;5992;52.744;6.898;2023-05-07T10:28:07;11.43;;;10.30;;
11865;SDS011;5992;52.744;6.898;2023-05-07T10:31:48;12.20;;;10.30;;
11865;SDS011;5992;52.744;6.898;2023-05-07T10:35:16;11.43;;;10.20;;
11865;SDS011;5992;52.744;6.898;2023-05-07T10:38:46;13.23;;;9.90;;
11865;SDS011;5992;52.744;6.898;2023-05-07T10:42:18;11.47;;;10.00;;
11865;SDS011;5992;52.744;6.898;2023-05-07T10:46:09;11.20;;;10.00;;
11865;SDS011;5992;52.744;6.898;2023-05-07T10:49:51;10.87;;;9.60;;
11865;SDS011;5992;52.744;6.898;2023-05-07T10:53:23;10.80;;;9.73;;
11865;SDS011;5992;52.744;6.898;2023-05-07T10:56:50;9.77;;;8.83;;
11865;SDS011;5992;52.744;6.898;2023-05-07T11:07:27;10.63;;;9.63;;
11865;SDS011;5992;52.744;6.898;2023-05-07T11:10:55;10.85;;;9.75;;
11865;SDS011;5992;52.744;6.898;2023-05-07T11:17:55;9.83;;;8.87;;
11865;SDS011;5992;52.744;6.898;2023-05-07T11:21:33;9.33;;;8.43;;
11865;SDS011;5992;52.744;6.898;2023-05-07T11:25:02;10.10;;;9.20;;
11865;SDS011;5992;52.744;6.898;2023-05-07T11:28:37;10.43;;;9.40;;
11865;SDS011;5992;52.744;6.898;2023-05-07T11:32:04;9.77;;;8.77;;
11865;SDS011;5992;52.744;6.898;2023-05-07T11:35:32;8.67;;;7.93;;
11865;SDS011;5992;52.744;6.898;2023-05-07T11:39:00;9.90;;;8.25;;
11865;SDS011;5992;52.744;6.898;2023-05-07T11:42:34;10.07;;;8.40;;
11865;SDS011;5992;52.744;6.898;2023-05-07T11:45:52;10.00;;;8.60;;
11865;SDS011;5992;52.744;6.898;2023-05-07T11:49:20;8.53;;;7.63;;
11865;SDS011;5992;52.744;6.898;2023-05-07T11:52:36;8.93;;;8.00;;
11865;SDS011;5992;52.744;6.898;2023-05-07T11:55:53;9.10;;;8.30;;
11865;SDS011;5992;52.744;6.898;2023-05-07T11:59:10;8.60;;;7.80;;
11865;SDS011;5992;52.744;6.898;2023-05-07T12:02:41;8.53;;;7.80;;
11865;SDS011;5992;52.744;6.898;2023-05-07T12:06:01;8.97;;;8.17;;
11865;SDS011;5992;52.744;6.898;2023-05-07T12:09:17;8.77;;;7.97;;
11865;SDS011;5992;52.744;6.898;2023-05-07T12:12:39;8.70;;;7.80;;
11865;SDS011;5992;52.744;6.898;2023-05-07T12:15:59;9.30;;;7.50;;
11865;SDS011;5992;52.744;6.898;2023-05-07T12:19:30;7.90;;;7.20;;
11865;SDS011;5992;52.744;6.898;2023-05-07T12:22:47;10.00;;;9.10;;
11865;SDS011;5992;52.744;6.898;2023-05-07T12:26:15;8.43;;;7.70;;
11865;SDS011;5992;52.744;6.898;2023-05-07T12:29:21;10.50;;;8.10;;
11865;SDS011;5992;52.744;6.898;2023-05-07T12:32:51;8.10;;;7.30;;
11865;SDS011;5992;52.744;6.898;2023-05-07T12:36:06;8.55;;;7.60;;
11865;SDS011;5992;52.744;6.898;2023-05-07T12:39:35;7.50;;;6.80;;
11865;SDS011;5992;52.744;6.898;2023-05-07T12:42:39;8.15;;;7.40;;
11865;SDS011;5992;52.744;6.898;2023-05-07T12:46:10;8.15;;;7.35;;
11865;SDS011;5992;52.744;6.898;2023-05-07T12:49:15;7.30;;;6.60;;
11865;SDS011;5992;52.744;6.898;2023-05-07T12:52:43;6.57;;;6.00;;
11865;SDS011;5992;52.744;6.898;2023-05-07T12:55:59;7.03;;;6.43;;
11865;SDS011;5992;52.744;6.898;2023-05-07T12:59:33;6.73;;;6.03;;
11865;SDS011;5992;52.744;6.898;2023-05-07T13:02:56;6.27;;;5.67;;
11865;SDS011;5992;52.744;6.898;2023-05-07T13:06:14;6.17;;;5.50;;
11865;SDS011;5992;52.744;6.898;2023-05-07T13:09:30;6.40;;;5.80;;
11865;SDS011;5992;52.744;6.898;2023-05-07T13:13:04;5.67;;;5.17;;
11865;SDS011;5992;52.744;6.898;2023-05-07T13:16:08;6.50;;;5.33;;
11865;SDS011;5992;52.744;6.898;2023-05-07T13:19:36;6.07;;;5.43;;
11865;SDS011;5992;52.744;6.898;2023-05-07T13:22:41;5.70;;;5.20;;
11865;SDS011;5992;52.744;6.898;2023-05-07T13:26:12;5.20;;;4.80;;
11865;SDS011;5992;52.744;6.898;2023-05-07T13:29:16;6.47;;;5.87;;
11865;SDS011;5992;52.744;6.898;2023-05-07T13:32:32;6.40;;;5.80;;
11865;SDS011;5992;52.744;6.898;2023-05-07T13:35:36;7.67;;;4.67;;
11865;SDS011;5992;52.744;6.898;2023-05-07T13:38:53;5.60;;;5.10;;
11865;SDS011;5992;52.744;6.898;2023-05-07T13:42:12;8.13;;;5.50;;
11865;SDS011;5992;52.744;6.898;2023-05-07T13:45:31;5.95;;;5.45;;
11865;SDS011;5992;52.744;6.898;2023-05-07T13:48:35;5.47;;;4.97;;
11865;SDS011;5992;52.744;6.898;2023-05-07T13:51:54;5.90;;;5.40;;
11865;SDS011;5992;52.744;6.898;2023-05-07T13:54:59;6.37;;;5.83;;
11865;SDS011;5992;52.744;6.898;2023-05-07T13:58:33;6.40;;;5.80;;
11865;SDS011;5992;52.744;6.898;2023-05-07T14:01:37;6.10;;;5.50;;
11865;SDS011;5992;52.744;6.898;2023-05-07T14:04:54;4.97;;;4.53;;
11865;SDS011;5992;52.744;6.898;2023-05-07T14:07:58;5.40;;;4.90;;
11865;SDS011;5992;52.744;6.898;2023-05-07T14:11:18;4.70;;;4.40;;
11865;SDS011;5992;52.744;6.898;2023-05-07T14:14:34;6.10;;;4.87;;
11865;SDS011;5992;52.744;6.898;2023-05-07T14:17:53;5.33;;;4.93;;
11865;SDS011;5992;52.744;6.898;2023-05-07T14:20:57;5.23;;;4.83;;
11865;SDS011;5992;52.744;6.898;2023-05-07T14:24:13;5.23;;;4.83;;
11865;SDS011;5992;52.744;6.898;2023-05-07T14:27:18;4.93;;;4.53;;
11865;SDS011;5992;52.744;6.898;2023-05-07T14:30:49;5.10;;;4.60;;
11865;SDS011;5992;52.744;6.898;2023-05-07T14:33:53;5.37;;;4.97;;
11865;SDS011;5992;52.744;6.898;2023-05-07T14:37:12;5.37;;;4.87;;
11865;SDS011;5992;52.744;6.898;2023-05-07T14:40:28;4.87;;;4.57;;
11865;SDS011;5992;52.744;6.898;2023-05-07T14:43:48;5.47;;;4.50;;
11865;SDS011;5992;52.744;6.898;2023-05-07T14:47:04;4.47;;;4.17;;
11865;SDS011;5992;52.744;6.898;2023-05-07T14:50:23;5.73;;;4.93;;
11865;SDS011;5992;52.744;6.898;2023-05-07T14:53:27;5.70;;;5.20;;
11865;SDS011;5992;52.744;6.898;2023-05-07T14:56:43;5.40;;;4.90;;
11865;SDS011;5992;52.744;6.898;2023-05-07T14:59:49;5.65;;;4.85;;
11865;SDS011;5992;52.744;6.898;2023-05-07T15:03:21;5.40;;;4.90;;
11865;SDS011;5992;52.744;6.898;2023-05-07T15:06:37;5.00;;;4.50;;
11865;SDS011;5992;52.744;6.898;2023-05-07T15:10:08;6.23;;;5.73;;
11865;SDS011;5992;52.744;6.898;2023-05-07T15:13:12;4.80;;;4.40;;
11865;SDS011;5992;52.744;6.898;2023-05-07T15:16:33;5.37;;;4.87;;
11865;SDS011;5992;52.744;6.898;2023-05-07T15:19:51;5.20;;;4.70;;
11865;SDS011;5992;52.744;6.898;2023-05-07T15:23:07;6.00;;;5.40;;
11865;SDS011;5992;52.744;6.898;2023-05-07T15:26:26;6.63;;;5.90;;
11865;SDS011;5992;52.744;6.898;2023-05-07T15:29:48;6.17;;;5.67;;
11865;SDS011;5992;52.744;6.898;2023-05-07T15:32:54;6.50;;;5.90;;
11865;SDS011;5992;52.744;6.898;2023-05-07T15:36:24;6.55;;;6.05;;
11865;SDS011;5992;52.744;6.898;2023-05-07T15:39:28;6.50;;;6.00;;
11865;SDS011;5992;52.744;6.898;2023-05-07T15:42:47;7.20;;;6.50;;
11865;SDS011;5992;52.744;6.898;2023-05-07T15:45:51;7.30;;;6.70;;
11865;SDS011;5992;52.744;6.898;2023-05-07T15:49:12;6.83;;;6.23;;
11865;SDS011;5992;52.744;6.898;2023-05-07T15:52:27;7.57;;;6.87;;
11865;SDS011;5992;52.744;6.898;2023-05-07T15:55:46;7.35;;;6.70;;
11865;SDS011;5992;52.744;6.898;2023-05-07T15:58:50;8.00;;;7.30;;
11865;SDS011;5992;52.744;6.898;2023-05-07T16:02:10;6.40;;;5.80;;
11865;SDS011;5992;52.744;6.898;2023-05-07T16:05:31;6.70;;;6.20;;
11865;SDS011;5992;52.744;6.898;2023-05-07T16:08:46;7.00;;;6.40;;
11865;SDS011;5992;52.744;6.898;2023-05-07T16:12:02;7.00;;;6.40;;
11865;SDS011;5992;52.744;6.898;2023-05-07T16:15:06;7.97;;;7.27;;
11865;SDS011;5992;52.744;6.898;2023-05-07T16:18:37;6.37;;;5.83;;
11865;SDS011;5992;52.744;6.898;2023-05-07T16:21:58;6.60;;;6.05;;
11865;SDS011;5992;52.744;6.898;2023-05-07T16:25:47;6.50;;;6.00;;
11865;SDS011;5992;52.744;6.898;2023-05-07T16:29:24;6.33;;;5.77;;
11865;SDS011;5992;52.744;6.898;2023-05-07T16:32:48;7.07;;;6.47;;
11865;SDS011;5992;52.744;6.898;2023-05-07T16:36:13;6.97;;;6.10;;
11865;SDS011;5992;52.744;6.898;2023-05-07T16:39:34;7.60;;;6.90;;
11865;SDS011;5992;52.744;6.898;2023-05-07T16:42:49;6.30;;;5.80;;
11865;SDS011;5992;52.744;6.898;2023-05-07T16:46:06;6.97;;;6.37;;
11865;SDS011;5992;52.744;6.898;2023-05-07T16:49:10;6.93;;;6.27;;
11865;SDS011;5992;52.744;6.898;2023-05-07T16:52:27;7.03;;;6.10;;
11865;SDS011;5992;52.744;6.898;2023-05-07T16:55:44;7.17;;;6.57;;
11865;SDS011;5992;52.744;6.898;2023-05-07T16:59:11;8.50;;;6.37;;
11865;SDS011;5992;52.744;6.898;2023-05-07T17:02:15;6.87;;;6.13;;
11865;SDS011;5992;52.744;6.898;2023-05-07T17:05:34;7.23;;;6.60;;
11865;SDS011;5992;52.744;6.898;2023-05-07T17:08:38;7.40;;;6.73;;
11865;SDS011;5992;52.744;6.898;2023-05-07T17:12:08;9.73;;;7.00;;
11865;SDS011;5992;52.744;6.898;2023-05-07T17:15:26;8.03;;;7.27;;
11865;SDS011;5992;52.744;6.898;2023-05-07T17:18:43;6.60;;;6.00;;
11865;SDS011;5992;52.744;6.898;2023-05-07T17:21:47;7.03;;;6.43;;
11865;SDS011;5992;52.744;6.898;2023-05-07T17:25:04;7.37;;;6.47;;
11865;SDS011;5992;52.744;6.898;2023-05-07T17:28:11;7.93;;;7.23;;
11865;SDS011;5992;52.744;6.898;2023-05-07T17:31:38;8.17;;;7.03;;
11865;SDS011;5992;52.744;6.898;2023-05-07T17:34:42;8.00;;;7.30;;
11865;SDS011;5992;52.744;6.898;2023-05-07T17:38:00;8.53;;;7.73;;
11865;SDS011;5992;52.744;6.898;2023-05-07T17:41:14;7.53;;;6.83;;
11865;SDS011;5992;52.744;6.898;2023-05-07T17:44:32;7.83;;;7.10;;
11865;SDS011;5992;52.744;6.898;2023-05-07T17:47:51;7.40;;;6.70;;
11865;SDS011;5992;52.744;6.898;2023-05-07T17:51:07;10.43;;;7.20;;
11865;SDS011;5992;52.744;6.898;2023-05-07T17:54:11;7.27;;;6.67;;
11865;SDS011;5992;52.744;6.898;2023-05-07T17:57:30;6.73;;;6.13;;
11865;SDS011;5992;52.744;6.898;2023-05-07T18:00:47;6.83;;;6.23;;
11865;SDS011;5992;52.744;6.898;2023-05-07T18:04:15;7.30;;;6.70;;
11865;SDS011;5992;52.744;6.898;2023-05-07T18:07:18;7.67;;;6.97;;
11865;SDS011;5992;52.744;6.898;2023-05-07T18:10:47;9.37;;;7.37;;
11865;SDS011;5992;52.744;6.898;2023-05-07T18:13:51;7.00;;;6.40;;
11865;SDS011;5992;52.744;6.898;2023-05-07T18:17:11;7.87;;;7.17;;
11865;SDS011;5992;52.744;6.898;2023-05-07T18:20:28;7.30;;;6.60;;
11865;SDS011;5992;52.744;6.898;2023-05-07T18:23:44;7.33;;;6.37;;
11865;SDS011;5992;52.744;6.898;2023-05-07T18:26:48;7.53;;;6.83;;
11865;SDS011;5992;52.744;6.898;2023-05-07T18:30:07;7.27;;;6.57;;
11865;SDS011;5992;52.744;6.898;2023-05-07T18:33:25;8.57;;;7.63;;
11865;SDS011;5992;52.744;6.898;2023-05-07T18:36:59;7.00;;;6.40;;
11865;SDS011;5992;52.744;6.898;2023-05-07T18:40:03;7.50;;;6.80;;
11865;SDS011;5992;52.744;6.898;2023-05-07T18:43:31;7.07;;;6.47;;
11865;SDS011;5992;52.744;6.898;2023-05-07T18:46:47;7.83;;;7.03;;
11865;SDS011;5992;52.744;6.898;2023-05-07T18:50:08;8.15;;;6.95;;
11865;SDS011;5992;52.744;6.898;2023-05-07T18:53:24;7.60;;;6.90;;
11865;SDS011;5992;52.744;6.898;2023-05-07T18:56:52;7.03;;;6.37;;
11865;SDS011;5992;52.744;6.898;2023-05-07T18:59:56;7.27;;;6.67;;
11865;SDS011;5992;52.744;6.898;2023-05-07T19:03:15;8.53;;;6.47;;
11865;SDS011;5992;52.744;6.898;2023-05-07T19:06:32;7.20;;;6.60;;
11865;SDS011;5992;52.744;6.898;2023-05-07T19:10:03;7.10;;;6.40;;
11865;SDS011;5992;52.744;6.898;2023-05-07T19:13:07;6.20;;;5.60;;
11865;SDS011;5992;52.744;6.898;2023-05-07T19:16:23;6.77;;;6.17;;
11865;SDS011;5992;52.744;6.898;2023-05-07T19:19:27;6.53;;;5.63;;
11865;SDS011;5992;52.744;6.898;2023-05-07T19:22:50;6.60;;;6.00;;
11865;SDS011;5992;52.744;6.898;2023-05-07T19:26:06;6.50;;;5.90;;
11865;SDS011;5992;52.744;6.898;2023-05-07T19:29:37;7.27;;;6.57;;
11865;SDS011;5992;52.744;6.898;2023-05-07T19:32:42;6.65;;;6.05;;
11865;SDS011;5992;52.744;6.898;2023-05-07T19:36:02;6.97;;;6.33;;
11865;SDS011;5992;52.744;6.898;2023-05-07T19:39:07;6.80;;;6.13;;
11865;SDS011;5992;52.744;6.898;2023-05-07T19:42:36;6.17;;;5.67;;
11865;SDS011;5992;52.744;6.898;2023-05-07T19:45:52;6.43;;;5.83;;
11865;SDS011;5992;52.744;6.898;2023-05-07T19:49:23;7.00;;;6.30;;
11865;SDS011;5992;52.744;6.898;2023-05-07T19:52:39;6.15;;;5.65;;
11865;SDS011;5992;52.744;6.898;2023-05-07T19:56:04;6.23;;;5.73;;
11865;SDS011;5992;52.744;6.898;2023-05-07T19:59:19;6.70;;;6.10;;
11865;SDS011;5992;52.744;6.898;2023-05-07T20:02:35;6.57;;;5.97;;
11865;SDS011;5992;52.744;6.898;2023-05-07T20:05:54;6.73;;;6.13;;
11865;SDS011;5992;52.744;6.898;2023-05-07T20:08:58;6.30;;;5.65;;
11865;SDS011;5992;52.744;6.898;2023-05-07T20:12:16;6.10;;;5.50;;
11865;SDS011;5992;52.744;6.898;2023-05-07T20:15:35;7.03;;;5.93;;
11865;SDS011;5992;52.744;6.898;2023-05-07T20:19:13;7.77;;;5.90;;